Time;durP1;ratioP1;P1;durP2;ratioP2;P2;SDS_P1;SDS_P2;PMS_P1;PMS_P2;Temp;Humidity;BMP_temperature;BMP_pressure;BME280_temperature;BME280_humidity;BME280_pressure;Samples;Min_cycle;Max_cycle;Signal;HPM_P1;HPM_P2
2022/01/09 00:02:29;;;;;;;128.48;52.30;;;;;;;;;;6267345;28;20086;-83
2022/01/09 00:05:30;;;;;;;106.47;46.10;;;;;;;;;;6268738;28;20021;-83
2022/01/09 00:08:30;;;;;;;105.93;46.92;;;;;;;;;;6271469;28;20380;-83
2022/01/09 00:11:30;;;;;;;106.88;44.10;;;;;;;;;;6252283;28;20025;-83
2022/01/09 00:14:31;;;;;;;115.65;49.33;;;;;;;;;;6260444;28;20392;-83
2022/01/09 00:17:31;;;;;;;116.03;46.95;;;;;;;;;;6298189;28;20104;-83
2022/01/09 00:20:32;;;;;;;88.22;42.50;;;;;;;;;;6297621;28;20020;-83
2022/01/09 00:23:32;;;;;;;99.65;45.47;;;;;;;;;;6252755;28;20167;-83
2022/01/09 00:26:33;;;;;;;87.53;40.17;;;;;;;;;;6250322;28;20392;-83
2022/01/09 00:29:33;;;;;;;97.57;42.85;;;;;;;;;;6272346;28;20486;-83
2022/01/09 00:32:34;;;;;;;100.70;42.75;;;;;;;;;;6272217;28;20013;-83
2022/01/09 00:35:34;;;;;;;95.38;42.28;;;;;;;;;;6255630;28;20029;-83
2022/01/09 00:38:34;;;;;;;87.65;41.63;;;;;;;;;;6246967;28;20049;-83
2022/01/09 00:41:35;;;;;;;92.80;43.50;;;;;;;;;;6248604;28;20052;-83
2022/01/09 00:44:35;;;;;;;100.70;44.45;;;;;;;;;;6254101;28;20485;-83
2022/01/09 00:47:36;;;;;;;100.68;45.00;;;;;;;;;;6273399;28;20013;-83
2022/01/09 00:50:38;;;;;;;96.32;43.08;;;;;;;;;;6264401;28;20028;-83
2022/01/09 00:53:38;;;;;;;99.85;44.78;;;;;;;;;;6249501;28;20031;-83
2022/01/09 00:56:39;;;;;;;96.32;43.20;;;;;;;;;;6273246;28;20028;-83
2022/01/09 00:59:39;;;;;;;95.78;47.50;;;;;;;;;;6272399;28;20067;-83
2022/01/09 01:02:40;;;;;;;95.57;42.22;;;;;;;;;;6272549;28;20029;-83
2022/01/09 01:05:40;;;;;;;100.47;43.22;;;;;;;;;;6270876;28;20388;-83
2022/01/09 01:08:40;;;;;;;96.03;42.90;;;;;;;;;;6270337;28;20024;-83
2022/01/09 01:11:41;;;;;;;93.10;42.30;;;;;;;;;;6246377;28;20112;-83
2022/01/09 01:14:41;;;;;;;84.38;39.17;;;;;;;;;;6246396;28;20358;-83
2022/01/09 01:17:41;;;;;;;101.95;42.05;;;;;;;;;;6245939;28;20354;-83
2022/01/09 01:20:42;;;;;;;97.20;45.83;;;;;;;;;;6246732;28;20013;-83
2022/01/09 01:23:42;;;;;;;88.68;40.70;;;;;;;;;;6251715;28;20151;-83
2022/01/09 01:26:42;;;;;;;95.15;44.30;;;;;;;;;;6247103;28;20385;-83
2022/01/09 01:29:42;;;;;;;94.20;42.38;;;;;;;;;;6253852;28;20021;-83
2022/01/09 01:32:43;;;;;;;95.35;42.22;;;;;;;;;;6270931;28;20491;-83
2022/01/09 01:35:44;;;;;;;82.10;41.42;;;;;;;;;;6269922;28;20044;-84
2022/01/09 01:38:44;;;;;;;109.78;48.55;;;;;;;;;;6257441;28;20068;-83
2022/01/09 01:41:44;;;;;;;97.45;47.53;;;;;;;;;;6245715;28;20025;-83
2022/01/09 01:44:46;;;;;;;95.30;41.78;;;;;;;;;;6254056;28;20110;-83
2022/01/09 01:47:46;;;;;;;89.53;41.72;;;;;;;;;;6250410;28;20482;-83
2022/01/09 01:50:47;;;;;;;94.60;42.70;;;;;;;;;;6245573;28;20053;-83
2022/01/09 01:53:49;;;;;;;98.93;41.17;;;;;;;;;;6251226;28;20121;-83
2022/01/09 01:56:49;;;;;;;94.28;42.65;;;;;;;;;;6257194;28;20017;-83
2022/01/09 01:59:49;;;;;;;90.65;42.65;;;;;;;;;;6262004;28;20034;-83
2022/01/09 02:02:49;;;;;;;87.85;42.95;;;;;;;;;;6246221;28;20025;-83
2022/01/09 02:05:50;;;;;;;86.85;38.90;;;;;;;;;;6245003;28;20028;-83
2022/01/09 02:08:51;;;;;;;83.70;37.40;;;;;;;;;;6246830;28;20013;-83
2022/01/09 02:11:51;;;;;;;74.75;38.22;;;;;;;;;;6270503;28;20104;-83
2022/01/09 02:14:51;;;;;;;98.22;41.30;;;;;;;;;;6266974;28;20722;-83
2022/01/09 02:17:51;;;;;;;86.65;40.25;;;;;;;;;;6244432;28;20025;-83
2022/01/09 02:20:52;;;;;;;88.43;38.47;;;;;;;;;;6249812;28;20453;-83
2022/01/09 02:23:52;;;;;;;72.63;34.38;;;;;;;;;;6267837;28;20060;-82
2022/01/09 02:26:53;;;;;;;75.25;35.75;;;;;;;;;;6273551;28;20100;-83
2022/01/09 02:29:53;;;;;;;82.20;39.90;;;;;;;;;;6270682;28;20472;-83
2022/01/09 02:32:54;;;;;;;75.93;36.90;;;;;;;;;;6270068;28;20013;-83
2022/01/09 02:35:56;;;;;;;90.88;39.78;;;;;;;;;;6270138;28;20374;-83
2022/01/09 02:38:56;;;;;;;81.60;37.08;;;;;;;;;;6270557;28;20127;-82
2022/01/09 02:41:56;;;;;;;72.68;32.78;;;;;;;;;;6268714;28;20053;-82
2022/01/09 02:44:57;;;;;;;79.60;37.15;;;;;;;;;;6259959;28;20527;-82
2022/01/09 02:48:00;;;;;;;85.20;36.88;;;;;;;;;;6245404;28;20021;-82
2022/01/09 02:51:05;;;;;;;78.95;37.80;;;;;;;;;;6244143;28;20033;-82
2022/01/09 02:57:24;;;;;;;87.85;38.10;;;;;;;;;;6260547;28;20048;-82
2022/01/09 03:00:25;;;;;;;87.07;38.20;;;;;;;;;;6267902;28;20082;-82
2022/01/09 03:03:25;;;;;;;76.75;36.20;;;;;;;;;;6267993;28;20390;-82
2022/01/09 03:06:25;;;;;;;78.45;38.05;;;;;;;;;;6269848;28;20123;-82
2022/01/09 03:09:25;;;;;;;75.28;36.72;;;;;;;;;;6268487;28;20017;-82
2022/01/09 03:12:26;;;;;;;82.70;36.55;;;;;;;;;;6268908;28;20048;-82
2022/01/09 03:15:26;;;;;;;82.07;37.35;;;;;;;;;;6262943;28;20037;-82
2022/01/09 03:18:27;;;;;;;63.15;28.27;;;;;;;;;;6248843;28;20037;-82
2022/01/09 03:21:27;;;;;;;63.90;30.35;;;;;;;;;;6252197;28;20068;-82
2022/01/09 03:24:27;;;;;;;64.40;29.17;;;;;;;;;;6269610;28;20028;-82
2022/01/09 03:27:27;;;;;;;68.57;32.63;;;;;;;;;;6262151;28;20146;-82
2022/01/09 03:30:28;;;;;;;64.40;32.30;;;;;;;;;;6246552;28;20052;-82
2022/01/09 03:33:28;;;;;;;66.80;33.33;;;;;;;;;;6244994;28;20040;-82
2022/01/09 03:36:28;;;;;;;74.57;32.60;;;;;;;;;;6243217;28;20454;-82
2022/01/09 03:39:29;;;;;;;74.68;33.45;;;;;;;;;;6243001;28;20528;-82
2022/01/09 03:42:29;;;;;;;73.07;31.40;;;;;;;;;;6244577;28;20053;-82
2022/01/09 03:45:29;;;;;;;74.18;33.85;;;;;;;;;;6258750;28;20075;-82
2022/01/09 03:48:31;;;;;;;56.63;28.63;;;;;;;;;;6268976;28;20021;-82
2022/01/09 03:51:32;;;;;;;;;;;;;;;;;;6254599;28;20018;-82
2022/01/09 03:54:36;;;;;;;82.70;35.22;;;;;;;;;;6244497;28;19971;-82
2022/01/09 03:57:36;;;;;;;69.10;34.30;;;;;;;;;;6251457;28;20041;-82
2022/01/09 04:00:36;;;;;;;74.18;34.33;;;;;;;;;;6243215;28;20017;-82
2022/01/09 04:03:37;;;;;;;72.78;32.10;;;;;;;;;;6244452;28;20048;-83
2022/01/09 04:06:46;;;;;;;66.35;30.88;;;;;;;;;;6244506;28;20424;-83
2022/01/09 04:09:47;;;;;;;75.93;33.83;;;;;;;;;;6244222;28;20370;-83
2022/01/09 04:12:50;;;;;;;60.35;28.55;;;;;;;;;;6243474;28;20021;-83
2022/01/09 04:15:50;;;;;;;61.88;26.77;;;;;;;;;;6254798;28;20033;-83
2022/01/09 04:18:50;;;;;;;63.10;31.98;;;;;;;;;;6267729;28;20028;-82
2022/01/09 04:21:51;;;;;;;70.45;31.20;;;;;;;;;;6263760;28;20100;-82
2022/01/09 04:24:51;;;;;;;72.38;32.35;;;;;;;;;;6268822;28;20032;-82
2022/01/09 04:27:51;;;;;;;53.83;22.98;;;;;;;;;;6253436;28;20032;-83
2022/01/09 04:30:52;;;;;;;70.15;30.25;;;;;;;;;;6242652;28;20036;-83
2022/01/09 04:33:52;;;;;;;68.05;33.03;;;;;;;;;;6263790;28;20036;-83
2022/01/09 04:36:52;;;;;;;70.07;35.97;;;;;;;;;;6267943;28;20105;-83
2022/01/09 04:39:54;;;;;;;87.82;41.08;;;;;;;;;;6267128;28;20045;-83
2022/01/09 04:42:56;;;;;;;83.72;38.03;;;;;;;;;;6267753;28;20024;-82
2022/01/09 04:45:56;;;;;;;103.47;42.05;;;;;;;;;;6250679;28;20101;-82
2022/01/09 04:48:57;;;;;;;87.38;37.60;;;;;;;;;;6244514;28;20017;-82
2022/01/09 04:51:57;;;;;;;94.10;41.88;;;;;;;;;;6255247;28;20017;-82
2022/01/09 04:54:58;;;;;;;66.07;31.75;;;;;;;;;;6269981;28;20032;-82
2022/01/09 04:57:58;;;;;;;101.80;41.40;;;;;;;;;;6271885;28;20029;-82
2022/01/09 05:00:59;;;;;;;91.07;39.67;;;;;;;;;;6272489;28;20029;-82
2022/01/09 05:03:59;;;;;;;80.75;40.33;;;;;;;;;;6271741;28;20074;-82
2022/01/09 05:07:00;;;;;;;92.07;39.83;;;;;;;;;;6270701;28;20412;-82
2022/01/09 05:10:00;;;;;;;73.03;34.15;;;;;;;;;;6263251;28;20021;-82
2022/01/09 05:13:00;;;;;;;74.55;33.78;;;;;;;;;;6246803;28;20517;-82
2022/01/09 05:16:00;;;;;;;54.55;26.20;;;;;;;;;;6260001;28;20024;-82
2022/01/09 05:19:07;;;;;;;80.43;37.20;;;;;;;;;;6270552;28;20388;-82
2022/01/09 05:22:08;;;;;;;78.85;37.67;;;;;;;;;;6268588;28;20021;-82
2022/01/09 05:25:09;;;;;;;83.27;36.87;;;;;;;;;;6271990;28;20024;-82
2022/01/09 05:28:09;;;;;;;85.88;39.88;;;;;;;;;;6254892;28;20018;-82
2022/01/09 05:31:09;;;;;;;89.32;37.85;;;;;;;;;;6247221;28;20389;-82
2022/01/09 05:34:09;;;;;;;85.45;38.40;;;;;;;;;;6266416;28;20029;-82
2022/01/09 05:37:10;;;;;;;74.53;33.03;;;;;;;;;;6270876;28;20029;-82
2022/01/09 05:40:10;;;;;;;70.93;36.83;;;;;;;;;;6271788;28;20048;-82
2022/01/09 05:43:11;;;;;;;92.70;41.88;;;;;;;;;;6270934;28;20032;-82
2022/01/09 05:46:11;;;;;;;93.20;37.28;;;;;;;;;;6251327;28;20080;-82
2022/01/09 05:49:13;;;;;;;78.63;36.53;;;;;;;;;;6247490;28;20059;-82
2022/01/09 05:52:13;;;;;;;69.32;33.58;;;;;;;;;;6246799;28;20024;-82
2022/01/09 05:55:13;;;;;;;75.70;35.05;;;;;;;;;;6245425;28;20025;-82
2022/01/09 05:58:14;;;;;;;68.30;33.85;;;;;;;;;;6267233;28;20029;-82
2022/01/09 06:01:14;;;;;;;70.55;33.15;;;;;;;;;;6271567;28;20031;-82
2022/01/09 06:04:14;;;;;;;72.30;34.38;;;;;;;;;;6269951;28;20029;-81
2022/01/09 06:07:15;;;;;;;80.70;34.20;;;;;;;;;;6271403;28;20255;-82
2022/01/09 06:10:15;;;;;;;69.30;33.85;;;;;;;;;;6258584;28;20024;-82
2022/01/09 06:13:15;;;;;;;75.80;32.80;;;;;;;;;;6246570;28;20009;-82
2022/01/09 06:16:15;;;;;;;76.17;33.77;;;;;;;;;;6276833;28;20106;-82
2022/01/09 06:19:16;;;;;;;53.92;28.02;;;;;;;;;;6295832;28;20244;-82
2022/01/09 06:22:18;;;;;;;49.05;22.52;;;;;;;;;;6271280;28;20041;-82
2022/01/09 06:25:18;;;;;;;65.15;30.73;;;;;;;;;;6245923;28;20024;-82
2022/01/09 06:28:19;;;;;;;65.97;32.30;;;;;;;;;;6251129;28;20374;-82
2022/01/09 06:31:19;;;;;;;73.85;34.15;;;;;;;;;;6244708;28;20160;-82
2022/01/09 06:34:19;;;;;;;66.65;31.10;;;;;;;;;;6264557;28;20443;-82
2022/01/09 06:37:20;;;;;;;65.93;33.43;;;;;;;;;;6268749;28;20402;-82
2022/01/09 06:40:20;;;;;;;74.20;33.33;;;;;;;;;;6268297;28;20025;-81
2022/01/09 06:43:20;;;;;;;75.60;35.22;;;;;;;;;;6268570;28;20052;-81
2022/01/09 06:46:21;;;;;;;76.80;35.65;;;;;;;;;;6246737;28;20017;-82
2022/01/09 06:49:21;;;;;;;70.80;33.30;;;;;;;;;;6244718;28;20009;-82
2022/01/09 06:52:21;;;;;;;75.78;35.35;;;;;;;;;;6256640;28;20006;-82
2022/01/09 06:55:22;;;;;;;73.10;36.40;;;;;;;;;;6243031;28;20025;-82
2022/01/09 06:58:22;;;;;;;77.25;37.50;;;;;;;;;;6267065;28;20031;-82
2022/01/09 07:01:22;;;;;;;69.55;36.20;;;;;;;;;;6269397;28;20025;-82
2022/01/09 07:04:23;;;;;;;72.30;35.60;;;;;;;;;;6268291;28;20025;-82
2022/01/09 07:07:23;;;;;;;71.38;34.38;;;;;;;;;;6269156;28;20028;-82
2022/01/09 07:10:23;;;;;;;74.78;36.03;;;;;;;;;;6256189;28;20022;-82
2022/01/09 07:13:23;;;;;;;66.07;31.97;;;;;;;;;;6259990;28;20044;-82
2022/01/09 07:16:24;;;;;;;65.53;29.23;;;;;;;;;;6250951;28;20044;-82
2022/01/09 07:19:24;;;;;;;64.17;34.60;;;;;;;;;;6243974;28;20132;-82
2022/01/09 07:22:24;;;;;;;68.72;32.95;;;;;;;;;;6257351;28;20031;-82
2022/01/09 07:25:24;;;;;;;65.30;32.90;;;;;;;;;;6267511;28;20119;-82
2022/01/09 07:28:25;;;;;;;69.38;33.80;;;;;;;;;;6250593;28;20017;-82
2022/01/09 07:31:25;;;;;;;57.73;26.77;;;;;;;;;;6244213;28;20067;-82
2022/01/09 07:34:25;;;;;;;69.80;30.20;;;;;;;;;;6243876;28;20017;-82
2022/01/09 07:37:30;;;;;;;60.67;29.98;;;;;;;;;;6253623;28;20028;-82
2022/01/09 07:40:30;;;;;;;67.90;31.45;;;;;;;;;;6253799;28;20159;-81
2022/01/09 07:43:30;;;;;;;66.68;31.27;;;;;;;;;;6253133;28;20025;-81
2022/01/09 07:46:31;;;;;;;59.78;30.67;;;;;;;;;;6258845;28;20092;-81
2022/01/09 07:49:31;;;;;;;64.45;29.25;;;;;;;;;;6254924;28;20516;-81
2022/01/09 07:52:34;;;;;;;70.65;31.45;;;;;;;;;;6260931;28;20032;-81
2022/01/09 07:55:34;;;;;;;65.75;33.20;;;;;;;;;;6259713;28;20029;-81
2022/01/09 07:58:34;;;;;;;70.40;32.83;;;;;;;;;;6267097;28;20025;-82
2022/01/09 08:01:35;;;;;;;62.15;30.85;;;;;;;;;;6248685;28;20049;-82
2022/01/09 08:04:35;;;;;;;59.92;29.92;;;;;;;;;;6257491;28;20500;-84
2022/01/09 08:07:35;;;;;;;69.38;33.20;;;;;;;;;;6260466;28;20124;-83
2022/01/09 08:10:36;;;;;;;63.78;30.75;;;;;;;;;;6251775;28;20545;-84
2022/01/09 08:13:36;;;;;;;59.15;33.30;;;;;;;;;;6255971;28;20104;-84
2022/01/09 08:16:36;;;;;;;57.97;29.92;;;;;;;;;;6257419;28;20025;-84
2022/01/09 08:19:37;;;;;;;60.15;26.88;;;;;;;;;;6255964;28;20113;-85
2022/01/09 08:22:38;;;;;;;60.70;27.73;;;;;;;;;;6255014;28;20014;-85
2022/01/09 08:25:38;;;;;;;50.58;24.70;;;;;;;;;;6254494;28;20025;-85
2022/01/09 08:28:41;;;;;;;45.67;23.38;;;;;;;;;;6254754;28;20017;-85
2022/01/09 08:31:42;;;;;;;47.05;23.88;;;;;;;;;;6253693;28;20032;-85
2022/01/09 08:34:43;;;;;;;46.10;23.13;;;;;;;;;;6264838;28;20526;-86
2022/01/09 08:37:44;;;;;;;47.60;25.83;;;;;;;;;;6262303;28;20052;-86
2022/01/09 08:40:45;;;;;;;52.72;25.80;;;;;;;;;;6258935;28;20114;-85
2022/01/09 08:43:45;;;;;;;49.85;25.88;;;;;;;;;;6253600;28;20123;-86
2022/01/09 08:46:45;;;;;;;51.00;25.90;;;;;;;;;;6257456;28;20055;-86
2022/01/09 08:49:45;;;;;;;52.13;25.30;;;;;;;;;;6247174;28;20059;-87
2022/01/09 08:52:46;;;;;;;49.97;24.35;;;;;;;;;;6262222;28;20029;-87
2022/01/09 08:55:46;;;;;;;67.97;29.90;;;;;;;;;;6251287;28;20047;-87
2022/01/09 08:58:47;;;;;;;62.30;28.42;;;;;;;;;;6270266;28;20107;-87
2022/01/09 09:01:47;;;;;;;60.15;27.23;;;;;;;;;;6269660;28;20028;-87
2022/01/09 09:04:48;;;;;;;61.78;26.85;;;;;;;;;;6271881;28;20024;-87
2022/01/09 09:07:48;;;;;;;59.10;28.95;;;;;;;;;;6270000;28;20017;-87
2022/01/09 09:10:48;;;;;;;55.78;26.75;;;;;;;;;;6256934;28;20028;-87
2022/01/09 09:13:48;;;;;;;56.85;26.13;;;;;;;;;;6246757;28;20013;-87
2022/01/09 09:16:49;;;;;;;46.83;22.73;;;;;;;;;;6249278;28;20318;-87
2022/01/09 09:19:49;;;;;;;45.22;20.40;;;;;;;;;;6246829;28;20033;-87
2022/01/09 09:22:50;;;;;;;49.75;22.17;;;;;;;;;;6250014;28;20086;-87
2022/01/09 09:25:50;;;;;;;34.42;18.40;;;;;;;;;;6250591;28;20710;-87
2022/01/09 09:28:51;;;;;;;34.63;18.75;;;;;;;;;;6250870;28;20034;-86
2022/01/09 09:31:51;;;;;;;41.88;21.58;;;;;;;;;;6247159;28;20030;-87
2022/01/09 09:34:51;;;;;;;35.47;18.45;;;;;;;;;;6248253;28;20022;-87
2022/01/09 09:37:51;;;;;;;36.67;18.98;;;;;;;;;;6247902;28;20072;-87
2022/01/09 09:40:52;;;;;;;35.60;19.17;;;;;;;;;;6246476;28;20025;-88
2022/01/09 09:43:52;;;;;;;29.80;13.90;;;;;;;;;;6249137;28;20018;-88
2022/01/09 09:46:53;;;;;;;38.15;16.63;;;;;;;;;;6271358;28;20075;-88
2022/01/09 09:49:54;;;;;;;31.38;18.73;;;;;;;;;;6270367;28;20075;-88
2022/01/09 09:52:54;;;;;;;34.83;15.13;;;;;;;;;;6247275;28;20025;-88
2022/01/09 09:55:54;;;;;;;30.08;15.20;;;;;;;;;;6254620;28;20040;-88
2022/01/09 09:58:58;;;;;;;34.22;14.80;;;;;;;;;;6272725;28;20029;-88
2022/01/09 10:01:58;;;;;;;35.13;15.77;;;;;;;;;;6273820;28;20025;-88
2022/01/09 10:04:59;;;;;;;28.15;12.98;;;;;;;;;;6272208;28;20447;-89
2022/01/09 10:08:05;;;;;;;30.33;14.40;;;;;;;;;;6271593;28;20477;-88
2022/01/09 10:11:12;;;;;;;30.73;14.77;;;;;;;;;;6273526;28;20024;-88
2022/01/09 10:14:13;;;;;;;24.73;14.48;;;;;;;;;;6272779;28;20028;-88
2022/01/09 10:17:16;;;;;;;27.77;13.87;;;;;;;;;;6252634;28;20036;-88
2022/01/09 10:20:18;;;;;;;27.95;12.65;;;;;;;;;;6247132;28;20033;-88
2022/01/09 10:23:18;;;;;;;20.50;9.68;;;;;;;;;;6250077;28;20393;-88
2022/01/09 10:26:20;;;;;;;25.83;12.63;;;;;;;;;;6253720;28;20096;-87
2022/01/09 10:29:20;;;;;;;29.63;15.80;;;;;;;;;;6248697;28;20018;-87
2022/01/09 10:32:24;;;;;;;34.83;16.23;;;;;;;;;;6247651;28;20439;-88
2022/01/09 10:35:25;;;;;;;53.25;22.95;;;;;;;;;;6246830;28;20040;-87
2022/01/09 10:38:29;;;;;;;44.53;20.60;;;;;;;;;;6247125;28;20056;-87
2022/01/09 10:41:45;;;;;;;61.85;23.02;;;;;;;;;;6246800;28;20017;-87
2022/01/09 10:44:45;;;;;;;32.53;15.27;;;;;;;;;;6254999;28;20136;-87
2022/01/09 10:47:45;;;;;;;25.92;11.50;;;;;;;;;;6271759;28;20515;-87
2022/01/09 10:50:47;;;;;;;37.28;14.63;;;;;;;;;;6271907;28;20021;-86
2022/01/09 10:53:50;;;;;;;21.00;8.82;;;;;;;;;;6270412;28;20500;-87
2022/01/09 10:56:50;;;;;;;;;;;;;;;;;;6262385;28;20025;-87
2022/01/09 10:59:50;;;;;;;14.40;7.75;;;;;;;;;;6247154;28;19920;-87
2022/01/09 11:02:51;;;;;;;41.75;13.73;;;;;;;;;;6246584;28;20021;-87
2022/01/09 11:05:52;;;;;;;41.22;14.77;;;;;;;;;;6246613;28;20017;-87
2022/01/09 11:08:53;;;;;;;23.83;9.68;;;;;;;;;;6246050;28;20013;-87
2022/01/09 11:11:54;;;;;;;26.60;11.87;;;;;;;;;;6245703;28;20535;-87
2022/01/09 11:14:54;;;;;;;50.78;18.83;;;;;;;;;;6248940;28;20033;-88
2022/01/09 11:17:58;;;;;;;30.35;14.70;;;;;;;;;;6245773;28;20485;-88
2022/01/09 11:20:58;;;;;;;97.22;39.38;;;;;;;;;;6246527;28;20044;-87
2022/01/09 11:24:13;;;;;;;30.17;13.43;;;;;;;;;;6272538;28;20013;-87
2022/01/09 11:27:17;;;;;;;20.15;9.25;;;;;;;;;;6276295;28;20158;-88
2022/01/09 11:30:36;;;;;;;51.85;19.10;;;;;;;;;;6270440;28;20020;-88
2022/01/09 11:33:55;;;;;;;17.30;6.82;;;;;;;;;;6270997;28;20013;-88
2022/01/09 11:37:13;;;;;;;29.02;13.75;;;;;;;;;;6250148;28;20604;-88
2022/01/09 11:40:21;;;;;;;34.55;12.68;;;;;;;;;;6246029;28;20572;-88
2022/01/09 11:43:21;;;;;;;21.15;10.73;;;;;;;;;;6246101;28;20163;-88
2022/01/09 11:46:22;;;;;;;14.52;6.55;;;;;;;;;;6268855;28;20029;-88
2022/01/09 11:49:22;;;;;;;20.02;8.20;;;;;;;;;;6270768;28;20436;-88
2022/01/09 11:52:24;;;;;;;20.77;7.10;;;;;;;;;;6248733;28;20465;-88
2022/01/09 11:55:53;;;;;;;14.98;6.35;;;;;;;;;;6253677;28;20109;-88
2022/01/09 11:59:12;;;;;;;15.13;7.40;;;;;;;;;;6236440;28;20124;-88
2022/01/09 12:02:15;;;;;;;21.23;9.35;;;;;;;;;;6246880;28;20036;-88
2022/01/09 12:05:16;;;;;;;19.95;9.75;;;;;;;;;;6249752;28;20026;-87
2022/01/09 12:08:16;;;;;;;19.65;9.70;;;;;;;;;;6250751;28;20025;-88
2022/01/09 12:11:16;;;;;;;25.73;10.45;;;;;;;;;;6252204;28;20393;-87
2022/01/09 12:14:36;;;;;;;35.75;14.48;;;;;;;;;;6275372;28;20115;-88
2022/01/09 12:17:41;;;;;;;24.73;12.63;;;;;;;;;;6249916;28;20052;-87
2022/01/09 12:20:41;;;;;;;17.17;9.02;;;;;;;;;;6250965;28;20424;-88
2022/01/09 12:23:41;;;;;;;23.88;9.98;;;;;;;;;;6271190;28;20032;-88
2022/01/09 12:26:41;;;;;;;20.60;9.80;;;;;;;;;;6273360;28;20111;-88
2022/01/09 12:29:46;;;;;;;17.02;7.88;;;;;;;;;;6275341;28;20032;-87
2022/01/09 12:32:47;;;;;;;15.35;7.72;;;;;;;;;;6275299;28;20481;-88
2022/01/09 12:35:56;;;;;;;16.92;6.80;;;;;;;;;;6274241;28;20035;-89
2022/01/09 12:38:57;;;;;;;25.55;11.10;;;;;;;;;;6275396;28;20045;-88
2022/01/09 12:41:58;;;;;;;29.27;13.82;;;;;;;;;;6274187;28;20025;-88
2022/01/09 12:44:58;;;;;;;18.95;9.80;;;;;;;;;;6264221;28;20389;-88
2022/01/09 12:48:00;;;;;;;15.00;7.80;;;;;;;;;;6262992;28;20163;-88
2022/01/09 12:51:12;;;;;;;15.52;7.45;;;;;;;;;;6264684;28;20022;-88
2022/01/09 12:54:12;;;;;;;19.20;8.82;;;;;;;;;;6250490;28;20048;-88
2022/01/09 12:57:12;;;;;;;20.25;8.82;;;;;;;;;;6263101;28;20476;-88
2022/01/09 13:00:13;;;;;;;14.18;6.85;;;;;;;;;;6275747;28;20020;-88
2022/01/09 13:03:17;;;;;;;19.27;8.02;;;;;;;;;;6276657;28;20377;-87
2022/01/09 13:06:21;;;;;;;28.50;11.07;;;;;;;;;;6275737;28;20036;-87
2022/01/09 13:09:26;;;;;;;21.08;8.65;;;;;;;;;;6254382;28;20017;-88
2022/01/09 13:12:27;;;;;;;19.70;8.65;;;;;;;;;;6281855;28;20051;-88
2022/01/09 13:15:31;;;;;;;28.67;12.07;;;;;;;;;;6274983;28;20017;-88
2022/01/09 13:18:40;;;;;;;22.27;9.48;;;;;;;;;;6275817;28;20464;-88
2022/01/09 13:21:42;;;;;;;34.53;14.80;;;;;;;;;;6271099;28;20021;-88
2022/01/09 13:24:42;;;;;;;27.50;11.55;;;;;;;;;;6252842;28;20028;-88
2022/01/09 13:27:43;;;;;;;28.83;13.77;;;;;;;;;;6259120;28;20040;-88
2022/01/09 13:30:43;;;;;;;20.08;9.40;;;;;;;;;;6252059;28;20022;-88
2022/01/09 13:33:51;;;;;;;19.95;9.85;;;;;;;;;;6252415;28;20022;-88
2022/01/09 13:36:52;;;;;;;22.50;12.00;;;;;;;;;;6255003;28;20428;-90
2022/01/09 13:39:54;;;;;;;23.65;11.75;;;;;;;;;;6236595;28;20211;-88
2022/01/09 13:42:54;;;;;;;34.40;13.30;;;;;;;;;;6266811;28;20022;-88
2022/01/09 13:46:08;;;;;;;36.58;17.77;;;;;;;;;;6254755;28;20487;-88
2022/01/09 13:49:16;;;;;;;89.10;42.45;;;;;;;;;;6281079;28;20139;-88
2022/01/09 13:52:17;;;;;;;35.78;16.52;;;;;;;;;;6277129;28;20028;-88
2022/01/09 13:55:22;;;;;;;41.58;21.17;;;;;;;;;;6274052;28;20037;-88
2022/01/09 13:58:22;;;;;;;23.17;12.40;;;;;;;;;;6274481;28;20127;-88
2022/01/09 14:01:41;;;;;;;24.48;13.38;;;;;;;;;;6273518;28;20058;-88
2022/01/09 14:04:43;;;;;;;24.85;12.50;;;;;;;;;;6267805;28;20029;-88
2022/01/09 14:07:53;;;;;;;27.33;13.05;;;;;;;;;;6261181;28;20084;-88
2022/01/09 14:10:55;;;;;;;38.05;17.50;;;;;;;;;;6248656;28;20396;-88
2022/01/09 14:13:55;;;;;;;29.10;15.60;;;;;;;;;;6251292;28;20036;-88
2022/01/09 14:16:55;;;;;;;40.40;17.88;;;;;;;;;;6263724;28;20276;-88
2022/01/09 14:19:57;;;;;;;42.15;18.23;;;;;;;;;;6261492;28;20025;-89
2022/01/09 14:22:58;;;;;;;39.50;17.63;;;;;;;;;;6251381;28;20227;-88
2022/01/09 14:26:04;;;;;;;32.42;16.10;;;;;;;;;;6251814;28;20020;-88
2022/01/09 14:29:04;;;;;;;56.63;24.50;;;;;;;;;;6251864;28;20018;-88
2022/01/09 14:32:16;;;;;;;62.15;32.10;;;;;;;;;;6257640;28;21029;-88
2022/01/09 14:35:29;;;;;;;48.88;26.15;;;;;;;;;;6257155;28;20132;-88
2022/01/09 14:38:31;;;;;;;35.78;19.10;;;;;;;;;;6246881;28;20084;-88
2022/01/09 14:41:33;;;;;;;;;;;;;;;;;;6254741;28;20031;-88
2022/01/09 14:44:33;;;;;;;35.30;19.27;;;;;;;;;;6245858;28;19909;-88
2022/01/09 14:47:34;;;;;;;37.70;19.63;;;;;;;;;;6250946;28;20311;-88
2022/01/09 14:50:34;;;;;;;32.47;13.60;;;;;;;;;;6253870;28;20074;-88
2022/01/09 14:53:35;;;;;;;31.10;14.07;;;;;;;;;;6254273;28;20072;-89
2022/01/09 14:56:35;;;;;;;27.27;13.25;;;;;;;;;;6253159;28;20389;-88
2022/01/09 14:59:35;;;;;;;28.35;12.55;;;;;;;;;;6257093;28;20021;-88
2022/01/09 15:02:36;;;;;;;34.25;13.93;;;;;;;;;;6261459;28;20025;-88
2022/01/09 15:05:37;;;;;;;20.42;9.27;;;;;;;;;;6258014;28;20029;-88
2022/01/09 15:08:37;;;;;;;23.45;10.70;;;;;;;;;;6249657;28;20029;-88
2022/01/09 15:11:38;;;;;;;22.77;9.93;;;;;;;;;;6249315;28;20700;-88
2022/01/09 15:14:38;;;;;;;24.42;10.57;;;;;;;;;;6253397;28;20017;-89
2022/01/09 15:17:38;;;;;;;19.90;9.52;;;;;;;;;;6249846;28;20029;-89
2022/01/09 15:20:40;;;;;;;19.25;9.77;;;;;;;;;;6254822;28;20484;-88
2022/01/09 15:23:44;;;;;;;30.65;11.90;;;;;;;;;;6257191;28;20025;-88
2022/01/09 15:26:45;;;;;;;30.00;13.80;;;;;;;;;;6267799;28;20021;-88
2022/01/09 15:29:45;;;;;;;33.22;15.43;;;;;;;;;;6244405;28;20028;-88
2022/01/09 15:32:47;;;;;;;27.85;11.98;;;;;;;;;;6243497;28;20068;-88
2022/01/09 15:35:48;;;;;;;22.83;9.05;;;;;;;;;;6245191;28;20017;-88
2022/01/09 15:38:49;;;;;;;25.50;11.43;;;;;;;;;;6252972;28;20044;-88
2022/01/09 15:41:50;;;;;;;24.05;10.25;;;;;;;;;;6262005;28;20587;-88
2022/01/09 15:44:50;;;;;;;23.25;10.10;;;;;;;;;;6251720;28;20013;-88
2022/01/09 15:47:50;;;;;;;25.63;9.93;;;;;;;;;;6254499;28;20099;-89
2022/01/09 15:50:51;;;;;;;24.27;11.07;;;;;;;;;;6245619;28;20016;-88
2022/01/09 15:53:52;;;;;;;27.08;10.88;;;;;;;;;;6244333;28;20021;-88
2022/01/09 15:56:52;;;;;;;26.27;12.40;;;;;;;;;;6247220;28;20021;-88
2022/01/09 15:59:53;;;;;;;27.90;13.20;;;;;;;;;;6250449;28;20026;-88
2022/01/09 16:02:53;;;;;;;33.25;15.88;;;;;;;;;;6259982;28;20524;-89
2022/01/09 16:05:53;;;;;;;27.70;11.77;;;;;;;;;;6255541;28;20021;-88
2022/01/09 16:09:06;;;;;;;37.45;14.93;;;;;;;;;;6245209;28;20022;-89
2022/01/09 16:12:10;;;;;;;30.80;11.93;;;;;;;;;;6258241;28;20063;-88
2022/01/09 16:15:10;;;;;;;37.28;15.02;;;;;;;;;;6247574;28;20018;-89
2022/01/09 16:18:11;;;;;;;38.17;19.70;;;;;;;;;;6258214;28;20013;-89
2022/01/09 16:21:12;;;;;;;54.35;23.60;;;;;;;;;;6269313;28;20135;-89
2022/01/09 16:24:12;;;;;;;50.17;22.33;;;;;;;;;;6270629;28;20013;-89
2022/01/09 16:27:12;;;;;;;47.30;20.83;;;;;;;;;;6262206;28;20072;-89
2022/01/09 16:30:13;;;;;;;53.05;21.15;;;;;;;;;;6256390;28;20009;-89
2022/01/09 16:33:13;;;;;;;34.53;17.27;;;;;;;;;;6270751;28;20015;-89
2022/01/09 16:36:14;;;;;;;37.72;16.83;;;;;;;;;;6266407;28;20017;-88
2022/01/09 16:39:14;;;;;;;42.65;18.98;;;;;;;;;;6262581;28;20045;-89
2022/01/09 16:42:14;;;;;;;49.08;19.17;;;;;;;;;;6249965;28;20045;-88
2022/01/09 16:45:15;;;;;;;45.38;21.15;;;;;;;;;;6254583;28;20076;-89
2022/01/09 16:48:15;;;;;;;48.08;21.00;;;;;;;;;;6258352;28;20021;-89
2022/01/09 16:51:15;;;;;;;51.83;23.20;;;;;;;;;;6255809;28;20036;-88
2022/01/09 16:54:16;;;;;;;48.08;22.55;;;;;;;;;;6268230;28;20101;-88
2022/01/09 16:57:16;;;;;;;52.40;25.42;;;;;;;;;;6258462;28;20020;-89
2022/01/09 17:00:19;;;;;;;55.78;25.13;;;;;;;;;;6254515;28;20283;-89
2022/01/09 17:03:19;;;;;;;68.40;27.65;;;;;;;;;;6255686;28;20064;-88
2022/01/09 17:06:21;;;;;;;63.15;26.85;;;;;;;;;;6258043;28;20029;-88
2022/01/09 17:09:21;;;;;;;66.03;29.15;;;;;;;;;;6254626;28;20100;-88
2022/01/09 17:12:21;;;;;;;78.18;37.03;;;;;;;;;;6255412;28;20013;-88
2022/01/09 17:15:22;;;;;;;94.85;40.00;;;;;;;;;;6260476;28;20025;-88
2022/01/09 17:18:22;;;;;;;86.15;35.42;;;;;;;;;;6249833;28;20056;-88
2022/01/09 17:21:22;;;;;;;89.85;38.30;;;;;;;;;;6252478;28;20116;-88
2022/01/09 17:24:23;;;;;;;92.57;40.47;;;;;;;;;;6260130;28;20017;-88
2022/01/09 17:27:24;;;;;;;88.90;38.13;;;;;;;;;;6258189;28;20025;-88
2022/01/09 17:30:25;;;;;;;83.15;36.53;;;;;;;;;;6253807;28;21638;-88
2022/01/09 17:33:25;;;;;;;89.72;37.38;;;;;;;;;;6261272;28;20057;-88
2022/01/09 17:36:25;;;;;;;90.75;37.35;;;;;;;;;;6249287;28;20112;-88
2022/01/09 17:39:26;;;;;;;96.25;41.85;;;;;;;;;;6260102;28;20053;-88
2022/01/09 17:42:26;;;;;;;92.57;41.95;;;;;;;;;;6259291;28;20426;-88